Terminal Aerodrome Forecast
Issued by NWS

Home | Current Version | Previous Version | Graphics & Text | Print | Product List | Glossary On
Versions: 1 2 3 4 5 6 7 8 9 10 11 12 13
839
FTUS43 KTOP 071615 AAA
TAFMHK
TAF AMD
KMHK 071615Z 0716/0812 31013KT P6SM BKN150
     FM071900 30017G25KT P6SM SCT090
     FM080000 31013G23KT P6SM BKN060
     FM080800 31014G24KT P6SM SCT020 OVC035=

USA.gov is the U.S. government's official web portal to all federal, state and local government web resources and services.